RJAW/IWO METAR and TAF weather

Enter ICAO airport designator
Station Type Date Time Source
RJAW METAR 2020/01/19 12:00 UTC NOAA

RJAW 191200Z 35009KT 9999 FEW020 19/10 Q1016 RMK 1CU020 A3002


Station Type Date Time Source
RJAW Decoded METAR 2020/01/19 12:00 UTC NOAA

Iwojima, Japan (RJAW) 24-47N 141-19E 116M
Jan 19, 2020 - 07:00 AM EST / 2020.01.19 1200 UTC
Wind: from the N (350 degrees) at 10 MPH (9 KT):0
Visibility: greater than 7 mile(s):0
Sky conditions: mostly clear
Temperature: 66 F (19 C)
Dew Point: 50 F (10 C)
Relative Humidity: 55%
Pressure (altimeter): 30.00 in. Hg (1016 hPa)
ob: RJAW 191200Z 35009KT 9999 FEW020 19/10 Q1016 RMK 1CU020 A3002
cycle: 12

Station Type Date Time Source
RJAW TAF UTC NOAA

Error!

Example: see airport list